Portada
METAR-TAF:

METAR-TAF

Aeroports :

Puvirnituq, Quebec, Canadà

latitud: 60-03N, longitud: 077-17W, altitud: 23 m

Observació

L'informe es va fer fa 21 minuts, a les 16:44 UTC
Vent 10 kt del Est/Nord-Est
Temperatura -32°C
Humitat 67%
Pressió 1031 hPa
Visibilitat: 9.7 km
Cel clar
calitja

METAR: CYPX 271644Z AUTO 07010KT 6SM HZ CLR M32/M36 A3046 RMK SLP321

Hora: 12:05 (17:05 UTC)

Pronòstic

L'informe es va fer fa 3 hores i 19 minuts, a les 13:46 UTC
Pronòstic vàlid del 27 a les 13 UTC al 27 a les 24 UTC
Vent 8 kt del Est
Visibilitat: 10 km
Escasses núvols a una alçada de 25000 ft
Temporalment
l' 27 a les 13 UTC al 27 a les 18 UTC
Visibilitat: 8.0 km
cristalls de gel, boirina
A partir de les 27 a les 1800 UTC
Vent 8 kt del Est
Visibilitat: 10 km
Cel clar

TAF: CYPX 271346Z 2713/2724 10008KT P6SM FEW250 TEMPO 2713/2718 5SM IC BR FM271800 10008KT P6SM SKC RMK FCST BASED ON AUTO OBS. NXT FCST BY 271800Z

Observacions i pronòstics meteorològics de més de 4000 aeroports (METAR i TAF).

Les estacions disponibles són els punts grocs i vermells al mapa.

Posi el ratolí al punt desitjat per veure el nom de l'estació.

Feu clic per veure les observacions i els pronòstics meteorològics.

Per canviar el mapa: feu clic els botons verds amb una creu de color negre per apropar; al botó verd amb un guió per allunyar la imatge; o en les fletxes verdes per a mapes adjacents.


METAR-TAF: